createdAt,value
2018-01-20T00:01:33.528Z,37.60
2018-01-20T00:04:02.722Z,36.47
2018-01-20T00:06:31.054Z,39.85
2018-01-20T00:08:59.407Z,39.03
2018-01-20T00:11:47.328Z,47.40
2018-01-20T00:14:17.113Z,30.60
2018-01-20T00:16:45.449Z,31.62
2018-01-20T00:19:13.803Z,29.00
2018-01-20T00:21:42.995Z,24.42
2018-01-20T00:24:12.069Z,30.48
2018-01-20T00:26:41.231Z,28.52
2018-01-20T00:29:09.568Z,27.67
2018-01-20T00:31:38.672Z,27.48
2018-01-20T00:34:07.737Z,28.87
2018-01-20T00:36:36.122Z,30.37
2018-01-20T00:39:04.454Z,36.00
2018-01-20T00:41:32.757Z,30.73
2018-01-20T00:44:01.105Z,32.60
2018-01-20T00:46:29.405Z,39.58
2018-01-20T00:48:57.744Z,39.78
2018-01-20T00:51:26.127Z,37.47
2018-01-20T00:53:54.450Z,37.40
2018-01-20T00:56:22.771Z,37.28
2018-01-20T00:58:52.174Z,37.60
2018-01-20T01:01:20.496Z,48.15
2018-01-20T01:03:48.801Z,55.53
2018-01-20T01:06:17.180Z,39.40
2018-01-20T01:08:45.485Z,37.40
2018-01-20T01:11:14.541Z,41.75
2018-01-20T01:13:42.851Z,41.40
2018-01-20T01:16:11.936Z,37.90
2018-01-20T01:18:40.260Z,39.60
2018-01-20T01:21:08.780Z,41.75
2018-01-20T01:23:37.095Z,41.75
2018-01-20T01:26:05.395Z,45.05
2018-01-20T01:28:33.730Z,45.85
2018-01-20T01:31:02.085Z,42.88
2018-01-20T01:33:30.404Z,37.05
2018-01-20T01:35:58.740Z,47.20
2018-01-20T01:38:27.091Z,39.40
2018-01-20T01:40:55.383Z,40.88
2018-01-20T01:43:23.924Z,40.63
2018-01-20T01:45:52.235Z,42.47
2018-01-20T01:48:20.606Z,41.30
2018-01-20T01:50:48.945Z,41.15
2018-01-20T01:53:17.478Z,40.20
2018-01-20T01:55:45.811Z,40.70
2018-01-20T01:58:14.913Z,38.22
2018-01-20T02:00:43.971Z,49.50
2018-01-20T02:03:13.058Z,44.17
2018-01-20T02:05:41.892Z,41.25
2018-01-20T02:08:10.211Z,42.92
2018-01-20T02:10:38.551Z,51.65
2018-01-20T02:13:07.679Z,47.13
2018-01-20T02:15:35.980Z,46.47
2018-01-20T02:18:04.332Z,48.10
2018-01-20T02:20:32.692Z,47.62
2018-01-20T02:23:01.027Z,53.50
2018-01-20T02:25:29.341Z,42.13
2018-01-20T02:27:57.766Z,49.80
2018-01-20T02:30:26.100Z,54.47
2018-01-20T02:32:54.421Z,49.20
2018-01-20T02:35:22.738Z,49.35
2018-01-20T02:37:51.849Z,52.05
2018-01-20T02:40:20.916Z,50.63
2018-01-20T02:42:49.277Z,48.22
2018-01-20T02:45:17.578Z,53.95
2018-01-20T02:47:45.901Z,61.45
2018-01-20T02:50:14.616Z,57.13
2018-01-20T02:52:42.912Z,45.53
2018-01-20T02:55:11.230Z,58.13
2018-01-20T02:57:40.353Z,54.65
2018-01-20T03:00:08.644Z,48.35
2018-01-20T03:02:36.962Z,64.28
2018-01-20T03:05:05.295Z,52.53
2018-01-20T03:07:33.616Z,52.20
2018-01-20T03:10:01.933Z,51.65
2018-01-20T03:12:31.079Z,51.83
2018-01-20T03:14:59.498Z,60.40
2018-01-20T03:17:28.715Z,51.50
2018-01-20T03:19:57.030Z,49.33
2018-01-20T03:22:25.476Z,51.72
2018-01-20T03:24:53.802Z,48.90
2018-01-20T03:27:22.248Z,50.63
2018-01-20T03:29:50.552Z,55.30
2018-01-20T03:32:18.924Z,45.30
2018-01-20T03:34:47.583Z,45.33
2018-01-20T03:37:15.938Z,48.95
2018-01-20T03:39:45.200Z,62.35
2018-01-20T03:42:13.528Z,47.30
2018-01-20T03:44:41.830Z,45.22
2018-01-20T03:47:10.190Z,47.97
2018-01-20T03:49:38.557Z,47.55
2018-01-20T03:52:06.902Z,40.35
2018-01-20T03:54:35.193Z,49.08
2018-01-20T03:57:04.580Z,40.25
2018-01-20T03:59:32.888Z,45.42
2018-01-20T04:02:01.178Z,49.38
2018-01-20T04:04:29.494Z,48.58
2018-01-20T04:06:57.830Z,52.58
2018-01-20T04:09:26.169Z,49.88
2018-01-20T04:11:54.509Z,55.17
2018-01-20T04:14:22.805Z,59.35
2018-01-20T04:16:51.336Z,54.20
2018-01-20T04:19:20.080Z,50.47
2018-01-20T04:21:48.393Z,45.05
2018-01-20T04:24:17.456Z,57.67
2018-01-20T04:26:45.823Z,57.72
2018-01-20T04:29:14.143Z,46.20
2018-01-20T04:31:43.240Z,61.63
2018-01-20T04:34:12.351Z,50.75
2018-01-20T04:36:40.684Z,44.97
2018-01-20T04:39:09.000Z,59.10
2018-01-20T04:41:37.492Z,51.78
2018-01-20T04:44:05.789Z,48.42
2018-01-20T04:46:34.084Z,43.67
2018-01-20T04:49:02.440Z,43.70
2018-01-20T04:51:30.761Z,41.88
2018-01-20T04:53:59.063Z,40.28
2018-01-20T04:56:27.394Z,45.83
2018-01-20T04:58:55.727Z,50.15
2018-01-20T05:01:24.808Z,40.15
2018-01-20T05:03:54.208Z,51.37
2018-01-20T05:06:22.579Z,50.30
2018-01-20T05:08:50.894Z,50.03
2018-01-20T05:11:19.238Z,44.22
2018-01-20T05:13:47.560Z,46.88
2018-01-20T05:16:15.866Z,44.63
2018-01-20T05:18:44.477Z,46.33
2018-01-20T05:21:12.826Z,43.80
2018-01-20T05:23:41.139Z,40.85
2018-01-20T05:26:09.912Z,50.25
2018-01-20T05:28:38.283Z,61.70
2018-01-20T05:31:06.579Z,43.45
2018-01-20T05:33:35.478Z,53.65
2018-01-20T05:36:03.815Z,50.03
2018-01-20T05:38:32.126Z,44.33
2018-01-20T05:41:00.490Z,54.58
2018-01-20T05:43:29.570Z,49.30
2018-01-20T05:45:57.897Z,47.40
2018-01-20T05:48:28.019Z,55.95
2018-01-20T05:50:56.348Z,54.42
2018-01-20T05:53:24.638Z,55.78
2018-01-20T05:55:52.949Z,50.12
2018-01-20T05:58:21.365Z,54.92
2018-01-20T06:00:49.683Z,65.68
2018-01-20T06:03:18.032Z,60.05
2018-01-20T06:05:46.341Z,63.92
2018-01-20T06:08:14.678Z,52.65
2018-01-20T06:10:43.392Z,55.25
2018-01-20T06:13:11.753Z,59.30
2018-01-20T06:15:40.123Z,53.17
2018-01-20T06:18:08.428Z,60.55
2018-01-20T06:20:36.728Z,47.72
2018-01-20T06:23:05.047Z,51.75
2018-01-20T06:25:33.360Z,52.25
2018-01-20T06:28:02.431Z,53.08
2018-01-20T06:30:30.938Z,52.95
2018-01-20T06:32:59.560Z,59.10
2018-01-20T06:35:27.908Z,55.80
2018-01-20T06:37:56.221Z,55.80
2018-01-20T06:40:25.335Z,52.92
2018-01-20T06:42:53.636Z,48.05
2018-01-20T06:45:21.921Z,53.15
2018-01-20T06:47:50.259Z,58.10
2018-01-20T06:50:18.587Z,55.00
2018-01-20T06:52:46.896Z,62.62
2018-01-20T06:55:15.497Z,54.35
2018-01-20T06:57:43.925Z,55.67
2018-01-20T07:00:12.216Z,60.97
2018-01-20T07:02:40.568Z,48.83
2018-01-20T07:05:08.894Z,54.92
2018-01-20T07:07:37.216Z,46.45
2018-01-20T07:10:05.678Z,75.62
2018-01-20T07:12:33.980Z,59.75
2018-01-20T07:15:02.270Z,57.05
2018-01-20T07:17:31.073Z,52.28
2018-01-20T07:19:59.396Z,55.67
2018-01-20T07:22:28.493Z,59.05
2018-01-20T07:24:56.860Z,55.12
2018-01-20T07:27:25.158Z,59.97
2018-01-20T07:29:53.494Z,54.97
2018-01-20T07:32:21.881Z,54.45
2018-01-20T07:34:50.967Z,53.60
2018-01-20T07:37:19.295Z,53.05
2018-01-20T07:39:47.773Z,53.75
2018-01-20T07:42:16.075Z,55.38
2018-01-20T07:44:44.402Z,59.63
2018-01-20T07:47:12.721Z,56.80
2018-01-20T07:49:41.035Z,54.90
2018-01-20T07:52:09.363Z,57.90
2018-01-20T07:54:37.728Z,65.78
2018-01-20T07:57:06.958Z,50.78
2018-01-20T07:59:35.278Z,50.63
2018-01-20T08:02:04.131Z,45.22
2018-01-20T08:04:32.558Z,52.10
2018-01-20T08:07:00.886Z,62.42
2018-01-20T08:09:29.237Z,46.78
2018-01-20T08:11:57.567Z,46.53
2018-01-20T08:14:26.014Z,52.47
2018-01-20T08:16:54.467Z,37.65
2018-01-20T08:19:22.792Z,43.47
2018-01-20T08:21:51.126Z,50.25
2018-01-20T08:24:19.881Z,49.70
2018-01-20T08:26:48.183Z,47.58
2018-01-20T08:29:16.492Z,50.88
2018-01-20T08:31:44.803Z,49.45
2018-01-20T08:34:13.111Z,45.08
2018-01-20T08:36:41.417Z,43.40
2018-01-20T08:39:09.748Z,54.55
2018-01-20T08:41:38.047Z,44.95
2018-01-20T08:44:06.364Z,37.65
2018-01-20T08:46:35.112Z,40.00
2018-01-20T08:49:03.437Z,41.13
2018-01-20T08:51:31.917Z,48.50
2018-01-20T08:54:00.336Z,37.30
2018-01-20T08:56:28.661Z,38.38
2018-01-20T08:58:57.031Z,44.70
2018-01-20T09:01:26.132Z,43.58
2018-01-20T09:03:55.251Z,39.90
2018-01-20T09:06:23.540Z,46.05
2018-01-20T09:08:52.317Z,40.70
2018-01-20T09:11:20.656Z,56.13
2018-01-20T09:13:49.758Z,43.78
2018-01-20T09:16:18.886Z,43.65
2018-01-20T09:18:47.315Z,45.63
2018-01-20T09:21:15.644Z,48.10
2018-01-20T09:23:44.037Z,41.83
2018-01-20T09:26:12.339Z,48.95
2018-01-20T09:28:40.668Z,43.65
2018-01-20T09:31:09.141Z,48.30
2018-01-20T09:33:38.254Z,53.60
2018-01-20T09:36:06.609Z,47.30
2018-01-20T09:38:35.281Z,43.65
2018-01-20T09:41:03.608Z,42.50
2018-01-20T09:43:31.913Z,42.22
2018-01-20T09:46:00.243Z,44.17
2018-01-20T09:48:28.556Z,41.60
2018-01-20T09:50:57.632Z,39.80
2018-01-20T09:53:26.396Z,41.45
2018-01-20T09:55:54.705Z,40.63
2018-01-20T09:58:23.024Z,43.13
2018-01-20T10:00:51.352Z,42.60
2018-01-20T10:03:19.648Z,31.98
2018-01-20T10:05:47.960Z,39.88
2018-01-20T10:08:16.526Z,36.70
2018-01-20T10:10:44.846Z,43.42
2018-01-20T10:13:13.912Z,32.50
2018-01-20T10:15:43.157Z,34.38
2018-01-20T10:18:11.508Z,30.40
2018-01-20T10:20:40.587Z,33.83
2018-01-20T10:23:08.912Z,27.50
2018-01-20T10:25:37.249Z,39.38
2018-01-20T10:28:05.581Z,30.77
2018-01-20T10:30:33.943Z,41.30
2018-01-20T10:33:02.261Z,35.20
2018-01-20T10:35:30.575Z,26.58
2018-01-20T10:38:00.699Z,32.65
2018-01-20T10:40:29.010Z,32.72
2018-01-20T10:42:57.337Z,26.67
2018-01-20T10:45:25.656Z,25.60
2018-01-20T10:47:54.016Z,23.00
2018-01-20T10:50:22.331Z,32.60
2018-01-20T10:52:50.675Z,25.65
2018-01-20T10:55:19.902Z,23.52
2018-01-20T10:57:48.590Z,23.73
2018-01-20T11:00:17.271Z,31.83
2018-01-20T11:02:45.561Z,29.20
2018-01-20T11:05:13.905Z,24.90
2018-01-20T11:07:42.275Z,23.75
2018-01-20T11:10:10.599Z,23.92
2018-01-20T11:12:38.912Z,28.33
2018-01-20T11:15:07.275Z,27.62
2018-01-20T11:17:35.625Z,33.42
2018-01-20T11:20:03.950Z,25.27
2018-01-20T11:22:32.544Z,39.53
2018-01-20T11:25:00.866Z,31.55
2018-01-20T11:27:29.338Z,35.50
2018-01-20T11:29:57.665Z,26.10
2018-01-20T11:32:25.993Z,23.98
2018-01-20T11:34:54.340Z,28.70
2018-01-20T11:37:22.714Z,29.15
2018-01-20T11:39:51.070Z,26.48
2018-01-20T11:42:19.409Z,24.60
2018-01-20T11:44:47.927Z,26.87
2018-01-20T11:47:16.228Z,26.77
2018-01-20T11:49:45.325Z,24.67
2018-01-20T11:52:13.688Z,22.55
2018-01-20T11:54:41.992Z,28.73
2018-01-20T11:57:10.305Z,28.98
2018-01-20T11:59:38.650Z,26.08
2018-01-20T12:02:07.718Z,39.05
2018-01-20T12:04:36.012Z,18.48
2018-01-20T12:07:05.008Z,31.15
2018-01-20T12:09:33.338Z,26.27
2018-01-20T12:12:01.665Z,36.20
2018-01-20T12:14:30.008Z,28.40
2018-01-20T12:16:58.316Z,31.15
2018-01-20T12:19:26.653Z,33.17
2018-01-20T12:21:55.020Z,26.67
2018-01-20T12:24:23.342Z,26.92
2018-01-20T12:26:51.662Z,31.10
2018-01-20T12:29:20.208Z,30.70
2018-01-20T12:31:48.540Z,29.00
2018-01-20T12:34:16.885Z,34.50
2018-01-20T12:36:45.240Z,33.38
2018-01-20T12:39:13.541Z,25.58
2018-01-20T12:41:42.659Z,28.33
2018-01-20T12:44:11.009Z,30.23
2018-01-20T12:46:40.126Z,23.60
2018-01-20T12:49:08.464Z,37.22
2018-01-20T12:51:36.899Z,28.20
2018-01-20T12:54:05.236Z,26.60
2018-01-20T12:56:33.579Z,32.60
2018-01-20T12:59:01.916Z,33.15
2018-01-20T13:01:30.231Z,25.98
2018-01-20T13:03:58.532Z,25.35
2018-01-20T13:06:26.896Z,22.05
2018-01-20T13:08:55.228Z,29.52
2018-01-20T13:11:23.564Z,20.70
2018-01-20T13:13:52.386Z,30.77
2018-01-20T13:16:20.699Z,29.20
2018-01-20T13:18:49.013Z,27.48
2018-01-20T13:21:17.367Z,30.05
2018-01-20T13:23:45.672Z,42.35
2018-01-20T13:26:13.976Z,30.42
2018-01-20T13:28:43.196Z,28.25
2018-01-20T13:31:11.552Z,29.40
2018-01-20T13:33:40.651Z,27.33
2018-01-20T13:36:09.331Z,31.15
2018-01-20T13:38:37.696Z,34.15
2018-01-20T13:41:06.000Z,34.28
2018-01-20T13:43:35.097Z,32.30
2018-01-20T13:46:04.213Z,36.72
2018-01-20T13:48:32.543Z,34.50
2018-01-20T13:51:00.908Z,36.40
2018-01-20T13:53:29.229Z,35.88
2018-01-20T13:55:58.319Z,43.92
2018-01-20T13:58:27.477Z,42.35
2018-01-20T14:00:55.791Z,33.20
2018-01-20T14:03:24.884Z,34.08
2018-01-20T14:05:54.009Z,31.55
2018-01-20T14:08:22.319Z,41.67
2018-01-20T14:10:50.635Z,29.08
2018-01-20T14:13:19.733Z,32.25
2018-01-20T14:15:48.044Z,34.03
2018-01-20T14:18:16.384Z,34.00
2018-01-20T14:20:45.268Z,32.25
2018-01-20T14:23:13.612Z,33.83
2018-01-20T14:25:41.936Z,32.97
2018-01-20T14:28:11.062Z,29.35
2018-01-20T14:30:39.404Z,37.17
2018-01-20T14:33:07.716Z,38.90
2018-01-20T14:35:36.052Z,37.65
2018-01-20T14:38:04.381Z,36.85
2018-01-20T14:40:32.690Z,34.95
2018-01-20T14:43:01.356Z,33.20
2018-01-20T14:45:29.649Z,32.33
2018-01-20T14:47:57.947Z,48.03
2018-01-20T14:50:26.299Z,46.20
2018-01-20T14:52:54.607Z,51.58
2018-01-20T14:55:22.913Z,41.67
2018-01-20T14:57:52.020Z,39.13
2018-01-20T15:00:20.346Z,35.30
2018-01-20T15:02:48.720Z,32.22
2018-01-20T15:05:17.555Z,39.83
2018-01-20T15:07:45.907Z,39.70
2018-01-20T15:10:14.216Z,36.65
2018-01-20T15:12:43.310Z,35.05
2018-01-20T15:15:12.403Z,39.50
2018-01-20T15:17:41.473Z,42.50
2018-01-20T15:20:09.822Z,34.33
2018-01-20T15:22:38.165Z,33.67
2018-01-20T15:25:06.505Z,37.20
2018-01-20T15:27:35.319Z,49.30
2018-01-20T15:30:03.695Z,37.15
2018-01-20T15:32:32.777Z,45.65
2018-01-20T15:35:01.128Z,41.60
2018-01-20T15:37:29.426Z,34.72
2018-01-20T15:39:57.729Z,34.40
2018-01-20T15:42:26.074Z,34.90
2018-01-20T15:44:54.380Z,29.20
2018-01-20T15:47:23.488Z,34.03
2018-01-20T15:49:52.894Z,38.15
2018-01-20T15:52:21.231Z,33.58
2018-01-20T15:54:49.564Z,40.75
2018-01-20T15:57:17.944Z,38.45
2018-01-20T15:59:46.437Z,37.28
2018-01-20T16:02:14.764Z,39.70
2018-01-20T16:04:43.098Z,43.83
2018-01-20T16:07:11.424Z,38.17
2018-01-20T16:09:39.734Z,36.33
2018-01-20T16:12:08.557Z,43.60
2018-01-20T16:14:36.892Z,39.45
2018-01-20T16:17:05.200Z,41.90
2018-01-20T16:19:34.330Z,39.53
2018-01-20T16:22:02.890Z,34.80
2018-01-20T16:24:31.229Z,34.20
2018-01-20T16:26:59.582Z,35.97
2018-01-20T16:29:27.912Z,41.03
2018-01-20T16:31:56.253Z,33.00
2018-01-20T16:34:25.146Z,36.13
2018-01-20T16:36:54.229Z,38.13
2018-01-20T16:39:22.526Z,44.75
2018-01-20T16:41:50.888Z,41.28
2018-01-20T16:44:19.285Z,48.95
2018-01-20T16:46:48.356Z,38.25
2018-01-20T16:49:16.719Z,41.45
2018-01-20T16:51:45.031Z,42.50
2018-01-20T16:54:14.168Z,46.58
2018-01-20T16:56:42.918Z,45.17
2018-01-20T16:59:11.240Z,42.92
2018-01-20T17:01:39.561Z,41.05
2018-01-20T17:04:07.882Z,39.70
2018-01-20T17:06:36.204Z,38.53
2018-01-20T17:09:04.605Z,41.35
2018-01-20T17:11:33.713Z,45.75
2018-01-20T17:14:02.795Z,43.65
2018-01-20T17:16:31.102Z,43.28
2018-01-20T17:18:59.870Z,44.53
2018-01-20T17:21:28.198Z,40.17
2018-01-20T17:23:56.859Z,42.90
2018-01-20T17:26:25.209Z,39.70
2018-01-20T17:28:54.300Z,45.40
2018-01-20T17:31:23.379Z,47.72
2018-01-20T17:33:51.727Z,41.47
2018-01-20T17:36:20.073Z,42.00
2018-01-20T17:38:48.419Z,50.95
2018-01-20T17:41:16.837Z,45.47
2018-01-20T17:43:45.157Z,44.53
2018-01-20T17:46:13.503Z,33.00
2018-01-20T17:48:41.860Z,40.55
2018-01-20T17:51:10.212Z,38.72
2018-01-20T17:53:38.524Z,29.67
2018-01-20T17:56:06.888Z,35.13
2018-01-20T17:58:35.958Z,37.40
2018-01-20T18:01:04.306Z,41.33
2018-01-20T18:03:32.927Z,38.25
2018-01-20T18:06:01.234Z,39.80
2018-01-20T18:08:30.323Z,40.40
2018-01-20T18:10:59.453Z,38.72
2018-01-20T18:13:27.767Z,37.63
2018-01-20T18:15:56.079Z,35.92
2018-01-20T18:18:25.211Z,39.22
2018-01-20T18:20:53.511Z,32.88
2018-01-20T18:23:21.844Z,36.50
2018-01-20T18:25:50.712Z,35.42
2018-01-20T18:28:19.036Z,45.75
2018-01-20T18:30:47.516Z,49.35
2018-01-20T18:33:15.864Z,41.55
2018-01-20T18:35:45.954Z,42.20
2018-01-20T18:38:14.280Z,33.97
2018-01-20T18:40:42.635Z,41.33
2018-01-20T18:43:10.934Z,33.45
2018-01-20T18:45:39.276Z,38.50
2018-01-20T18:48:07.943Z,37.78
2018-01-20T18:50:36.236Z,41.28
2018-01-20T18:53:04.565Z,31.23
2018-01-20T18:55:33.144Z,30.05
2018-01-20T18:58:01.428Z,38.53
2018-01-20T19:00:29.785Z,39.20
2018-01-20T19:02:58.154Z,33.55
2018-01-20T19:05:26.492Z,37.60
2018-01-20T19:07:54.818Z,33.95
2018-01-20T19:10:23.621Z,29.83
2018-01-20T19:12:51.967Z,34.75
2018-01-20T19:15:20.290Z,35.58
2018-01-20T19:17:48.635Z,28.17
2018-01-20T19:20:16.964Z,31.00
2018-01-20T19:22:45.300Z,35.17
2018-01-20T19:25:13.884Z,36.80
2018-01-20T19:27:42.239Z,33.35
2018-01-20T19:30:10.545Z,33.30
2018-01-20T19:32:39.971Z,32.75
2018-01-20T19:35:08.283Z,32.13
2018-01-20T19:37:36.583Z,30.85
2018-01-20T19:40:04.920Z,36.45
2018-01-20T19:42:33.259Z,40.28
2018-01-20T19:45:02.076Z,34.70
2018-01-20T19:47:30.469Z,30.90
2018-01-20T19:49:59.560Z,32.28
2018-01-20T19:52:27.903Z,40.25
2018-01-20T19:54:57.216Z,28.62
2018-01-20T19:57:25.507Z,34.70
2018-01-20T19:59:53.813Z,40.22
2018-01-20T20:02:22.225Z,38.60
2018-01-20T20:04:51.345Z,30.48
2018-01-20T20:07:19.681Z,33.25
2018-01-20T20:09:48.054Z,28.73
2018-01-20T20:12:16.417Z,27.67
2018-01-20T20:14:44.766Z,28.05
2018-01-20T20:17:13.296Z,34.25
2018-01-20T20:19:41.685Z,33.75
2018-01-20T20:22:10.008Z,31.45
2018-01-20T20:24:38.396Z,41.40
2018-01-20T20:27:06.743Z,37.90
2018-01-20T20:29:35.055Z,61.05
2018-01-20T20:32:03.389Z,33.33
2018-01-20T20:34:31.719Z,38.83
2018-01-20T20:37:00.048Z,62.17
2018-01-20T20:39:28.871Z,45.08
2018-01-20T20:41:57.231Z,34.78
2018-01-20T20:44:25.598Z,40.10
2018-01-20T20:46:54.748Z,37.70
2018-01-20T20:49:23.076Z,43.38
2018-01-20T20:51:52.423Z,37.83
2018-01-20T20:54:20.800Z,35.17
2018-01-20T20:56:49.126Z,38.80
2018-01-20T20:59:17.516Z,36.42
2018-01-20T21:01:46.693Z,30.17
2018-01-20T21:04:15.018Z,29.55
2018-01-20T21:06:43.337Z,32.10
2018-01-20T21:09:11.707Z,31.15
2018-01-20T21:11:40.031Z,35.47
2018-01-20T21:14:09.156Z,35.53
2018-01-20T21:16:37.498Z,32.75
2018-01-20T21:19:06.611Z,41.35
2018-01-20T21:21:34.948Z,44.53
2018-01-20T21:24:03.580Z,42.30
2018-01-20T21:26:31.916Z,37.72
2018-01-20T21:29:00.243Z,27.65
2018-01-20T21:31:28.576Z,45.83
2018-01-20T21:33:56.894Z,30.88
2018-01-20T21:36:25.228Z,24.65
2018-01-20T21:38:53.575Z,39.10
2018-01-20T21:41:21.871Z,35.95
2018-01-20T21:43:50.185Z,34.58
2018-01-20T21:46:19.848Z,33.00
2018-01-20T21:48:48.150Z,49.72
2018-01-20T21:51:16.462Z,32.58
2018-01-20T21:53:45.553Z,36.05
2018-01-20T21:56:14.662Z,33.53
2018-01-20T21:58:42.982Z,34.85
2018-01-20T22:01:11.292Z,32.58
2018-01-20T22:03:39.592Z,30.80
2018-01-20T22:06:08.103Z,37.45
2018-01-20T22:08:36.665Z,38.35
2018-01-20T22:11:04.981Z,40.35
2018-01-20T22:13:33.312Z,34.78
2018-01-20T22:16:02.409Z,34.08
2018-01-20T22:18:30.733Z,33.72
2018-01-20T22:20:59.063Z,31.98
2018-01-20T22:23:28.198Z,26.98
2018-01-20T22:25:56.539Z,34.42
2018-01-20T22:28:24.868Z,36.35
2018-01-20T22:30:53.492Z,32.95
2018-01-20T22:33:22.633Z,30.88
2018-01-20T22:35:50.958Z,29.00
2018-01-20T22:38:19.518Z,35.50
2018-01-20T22:40:47.829Z,33.30
2018-01-20T22:43:16.168Z,45.60
2018-01-20T22:45:44.508Z,38.45
2018-01-20T22:48:12.828Z,29.08
2018-01-20T22:50:41.162Z,37.83
2018-01-20T22:53:09.581Z,37.75
2018-01-20T22:55:37.907Z,36.47
2018-01-20T22:58:06.253Z,36.45
2018-01-20T23:00:34.601Z,27.92
2018-01-20T23:03:02.928Z,34.35
2018-01-20T23:05:31.242Z,31.95
2018-01-20T23:07:59.587Z,30.85
2018-01-20T23:10:28.674Z,31.37
2018-01-20T23:12:56.972Z,32.70
2018-01-20T23:15:26.345Z,33.08
2018-01-20T23:17:54.641Z,31.25
2018-01-20T23:20:23.730Z,30.55
2018-01-20T23:22:52.072Z,29.77
2018-01-20T23:25:20.390Z,27.27
2018-01-20T23:27:49.162Z,29.10
2018-01-20T23:30:17.511Z,29.85
2018-01-20T23:32:45.839Z,27.77
2018-01-20T23:35:14.919Z,29.75
2018-01-20T23:37:43.321Z,29.95
2018-01-20T23:40:11.644Z,31.35
2018-01-20T23:42:40.736Z,27.40
2018-01-20T23:45:09.088Z,36.20
2018-01-20T23:47:37.414Z,33.63
2018-01-20T23:50:05.736Z,31.83
2018-01-20T23:52:34.098Z,31.67
2018-01-20T23:55:02.417Z,30.52
2018-01-20T23:57:30.734Z,33.72
2018-01-20T23:59:59.849Z,34.60
